createdAt,value
2019-02-21T00:00:43.237Z,6.55
2019-02-21T00:03:14.489Z,6.42
2019-02-21T00:05:43.974Z,6.65
2019-02-21T00:08:14.325Z,6.50
2019-02-21T00:10:43.847Z,6.70
2019-02-21T00:13:13.594Z,6.33
2019-02-21T00:15:43.149Z,5.78
2019-02-21T00:18:12.698Z,6.00
2019-02-21T00:20:42.254Z,5.78
2019-02-21T00:23:11.815Z,7.10
2019-02-21T00:25:41.292Z,7.03
2019-02-21T00:28:10.792Z,5.70
2019-02-21T00:30:40.344Z,5.67
2019-02-21T00:33:09.826Z,5.80
2019-02-21T00:35:39.315Z,6.50
2019-02-21T00:38:08.910Z,6.70
2019-02-21T00:40:38.375Z,5.35
2019-02-21T00:43:07.909Z,6.65
2019-02-21T00:45:37.399Z,6.95
2019-02-21T00:48:06.879Z,6.85
2019-02-21T00:50:36.362Z,6.62
2019-02-21T00:53:05.910Z,6.58
2019-02-21T00:55:35.401Z,5.97
2019-02-21T00:58:04.875Z,5.45
2019-02-21T01:00:34.367Z,5.90
2019-02-21T01:03:04.232Z,5.50
2019-02-21T01:05:33.714Z,7.92
2019-02-21T01:08:03.302Z,6.83
2019-02-21T01:10:32.867Z,6.90
2019-02-21T01:13:02.336Z,6.83
2019-02-21T01:15:31.864Z,6.17
2019-02-21T01:18:01.345Z,6.50
2019-02-21T01:20:30.844Z,7.20
2019-02-21T01:23:00.326Z,7.25
2019-02-21T01:25:29.871Z,6.30
2019-02-21T01:27:59.472Z,6.30
2019-02-21T01:30:29.518Z,7.17
2019-02-21T01:32:58.995Z,6.05
2019-02-21T01:35:28.479Z,7.20
2019-02-21T01:37:57.962Z,6.17
2019-02-21T01:40:27.520Z,5.47
2019-02-21T01:42:57.165Z,7.22
2019-02-21T01:45:26.680Z,7.53
2019-02-21T01:47:56.176Z,7.37
2019-02-21T01:50:25.666Z,6.75
2019-02-21T01:52:55.208Z,5.17
2019-02-21T01:55:24.696Z,6.97
2019-02-21T01:57:54.340Z,6.25
2019-02-21T02:00:23.822Z,8.00
2019-02-21T02:02:53.302Z,6.15
2019-02-21T02:05:22.916Z,6.10
2019-02-21T02:07:52.399Z,6.50
2019-02-21T02:10:21.903Z,7.47
2019-02-21T02:12:51.382Z,7.80
2019-02-21T02:15:20.909Z,6.97
2019-02-21T02:17:50.352Z,6.83
2019-02-21T02:20:19.829Z,6.60
2019-02-21T02:22:49.331Z,6.90
2019-02-21T02:25:18.871Z,6.72
2019-02-21T02:27:48.373Z,6.17
2019-02-21T02:30:17.858Z,6.75
2019-02-21T02:32:47.375Z,6.35
2019-02-21T02:35:16.999Z,7.03
2019-02-21T02:37:46.554Z,7.62
2019-02-21T02:40:16.110Z,7.85
2019-02-21T02:42:45.595Z,6.78
2019-02-21T02:45:15.141Z,7.42
2019-02-21T02:47:44.680Z,6.50
2019-02-21T02:50:14.144Z,6.83
2019-02-21T02:52:43.668Z,7.60
2019-02-21T02:55:13.137Z,6.83
2019-02-21T02:57:42.620Z,7.85
2019-02-21T03:00:15.659Z,8.00
2019-02-21T03:02:45.218Z,7.20
2019-02-21T03:05:14.864Z,7.05
2019-02-21T03:07:44.350Z,7.92
2019-02-21T03:10:14.206Z,6.17
2019-02-21T03:12:43.664Z,5.83
2019-02-21T03:15:13.216Z,7.85
2019-02-21T03:17:42.705Z,8.60
2019-02-21T03:20:12.260Z,7.60
2019-02-21T03:22:41.749Z,7.60
2019-02-21T03:25:11.363Z,7.03
2019-02-21T03:27:40.905Z,6.85
2019-02-21T03:30:12.870Z,7.70
2019-02-21T03:32:42.479Z,9.18
2019-02-21T03:35:13.544Z,7.10
2019-02-21T03:37:43.022Z,8.58
2019-02-21T03:40:12.715Z,7.75
2019-02-21T03:42:42.200Z,7.85
2019-02-21T03:45:14.459Z,7.15
2019-02-21T03:47:44.009Z,7.78
2019-02-21T03:50:13.509Z,8.13
2019-02-21T03:52:43.076Z,7.12
2019-02-21T03:55:12.630Z,6.80
2019-02-21T03:57:42.193Z,7.20
2019-02-21T04:00:12.911Z,7.33
2019-02-21T04:02:42.532Z,6.78
2019-02-21T04:05:12.160Z,5.65
2019-02-21T04:07:41.633Z,6.10
2019-02-21T04:10:11.250Z,6.35
2019-02-21T04:12:40.740Z,6.97
2019-02-21T04:15:12.835Z,6.55
2019-02-21T04:17:42.325Z,6.55
2019-02-21T04:20:11.882Z,6.83
2019-02-21T04:22:41.385Z,7.78
2019-02-21T04:25:10.970Z,8.00
2019-02-21T04:27:40.533Z,5.92
2019-02-21T04:30:10.092Z,8.10
2019-02-21T04:32:39.612Z,7.65
2019-02-21T04:35:09.238Z,6.85
2019-02-21T04:37:38.746Z,7.92
2019-02-21T04:40:08.396Z,8.58
2019-02-21T04:42:37.887Z,7.45
2019-02-21T04:45:07.948Z,7.22
2019-02-21T04:47:37.455Z,7.08
2019-02-21T04:50:07.544Z,8.13
2019-02-21T04:52:37.040Z,6.50
2019-02-21T04:55:07.120Z,6.65
2019-02-21T04:57:36.598Z,8.10
2019-02-21T05:00:10.779Z,6.62
2019-02-21T05:02:40.339Z,8.20
2019-02-21T05:05:09.982Z,7.05
2019-02-21T05:07:39.453Z,7.80
2019-02-21T05:10:09.010Z,7.65
2019-02-21T05:12:38.490Z,7.15
2019-02-21T05:15:08.138Z,7.35
2019-02-21T05:17:37.625Z,6.12
2019-02-21T05:20:07.792Z,8.20
2019-02-21T05:22:37.282Z,7.40
2019-02-21T05:25:07.254Z,7.90
2019-02-21T05:27:38.061Z,8.75
2019-02-21T05:30:11.515Z,7.83
2019-02-21T05:32:42.668Z,8.78
2019-02-21T05:35:22.744Z,8.05
2019-02-21T05:38:10.341Z,7.15
2019-02-21T05:40:45.111Z,7.95
2019-02-21T05:43:16.259Z,6.95
2019-02-21T05:46:05.878Z,6.87
2019-02-21T05:48:40.307Z,7.42
2019-02-21T05:51:11.620Z,8.45
2019-02-21T05:53:42.752Z,7.65
2019-02-21T05:56:13.928Z,6.97
2019-02-21T05:58:54.222Z,7.87
2019-02-21T06:01:34.194Z,7.05
2019-02-21T06:04:05.394Z,6.15
2019-02-21T06:06:42.404Z,8.30
2019-02-21T06:09:13.535Z,8.20
2019-02-21T06:12:02.929Z,8.65
2019-02-21T06:14:34.051Z,9.50
2019-02-21T06:17:21.306Z,9.58
2019-02-21T06:19:52.438Z,8.40
2019-02-21T06:22:29.281Z,8.53
2019-02-21T06:25:00.430Z,8.28
2019-02-21T06:27:40.634Z,8.53
2019-02-21T06:30:11.934Z,8.53
2019-02-21T06:32:41.433Z,6.85
2019-02-21T06:35:11.666Z,6.95
2019-02-21T06:37:41.159Z,9.05
2019-02-21T06:40:10.819Z,7.65
2019-02-21T06:42:40.317Z,8.10
2019-02-21T06:45:09.948Z,9.35
2019-02-21T06:47:39.438Z,8.33
2019-02-21T06:50:09.019Z,7.70
2019-02-21T06:52:40.565Z,7.12
2019-02-21T06:55:10.025Z,7.50
2019-02-21T06:57:39.618Z,9.23
2019-02-21T07:00:09.239Z,8.10
2019-02-21T07:02:38.732Z,8.55
2019-02-21T07:05:08.297Z,8.15
2019-02-21T07:07:37.777Z,9.15
2019-02-21T07:10:08.583Z,7.62
2019-02-21T07:12:38.094Z,10.28
2019-02-21T07:15:10.974Z,8.60
2019-02-21T07:17:48.847Z,8.88
2019-02-21T07:20:12.957Z,8.95
2019-02-21T07:22:42.589Z,7.70
2019-02-21T07:25:18.293Z,9.13
2019-02-21T07:27:47.787Z,8.75
2019-02-21T07:30:21.052Z,9.15
2019-02-21T07:32:48.532Z,8.18
2019-02-21T07:35:18.021Z,9.03
2019-02-21T07:37:47.539Z,9.88
2019-02-21T07:40:19.956Z,10.23
2019-02-21T07:42:48.437Z,10.63
2019-02-21T07:45:17.898Z,8.95
2019-02-21T07:47:47.379Z,8.50
2019-02-21T07:50:16.925Z,9.05
2019-02-21T07:52:46.439Z,9.05
2019-02-21T07:55:16.117Z,10.08
2019-02-21T07:57:45.597Z,11.20
2019-02-21T08:00:15.224Z,9.75
2019-02-21T08:02:44.795Z,10.98
2019-02-21T08:05:14.297Z,9.80
2019-02-21T08:07:43.787Z,9.50
2019-02-21T08:10:13.722Z,12.25
2019-02-21T08:12:43.214Z,10.10
2019-02-21T08:15:13.799Z,9.50
2019-02-21T08:17:43.304Z,11.18
2019-02-21T08:20:13.580Z,10.88
2019-02-21T08:22:43.080Z,10.63
2019-02-21T08:25:12.638Z,10.70
2019-02-21T08:27:42.665Z,10.40
2019-02-21T08:30:15.806Z,10.60
2019-02-21T08:33:01.773Z,11.75
2019-02-21T08:35:31.555Z,11.20
2019-02-21T08:38:01.160Z,10.28
2019-02-21T08:40:30.722Z,10.30
2019-02-21T08:43:00.235Z,10.87
2019-02-21T08:45:29.751Z,9.57
2019-02-21T08:47:59.219Z,10.57
2019-02-21T08:50:28.713Z,10.57
2019-02-21T08:53:00.910Z,11.90
2019-02-21T08:55:29.433Z,10.40
2019-02-21T08:57:59.007Z,11.90
2019-02-21T09:00:28.531Z,10.70
2019-02-21T09:02:58.985Z,12.10
2019-02-21T09:05:28.541Z,9.80
2019-02-21T09:07:58.108Z,11.03
2019-02-21T09:10:27.912Z,12.77
2019-02-21T09:12:57.604Z,11.43
2019-02-21T09:15:27.228Z,10.57
2019-02-21T09:17:56.725Z,11.50
2019-02-21T09:20:26.238Z,9.43
2019-02-21T09:22:55.917Z,10.90
2019-02-21T09:25:25.417Z,10.83
2019-02-21T09:27:55.019Z,10.80
2019-02-21T09:30:24.522Z,11.37
2019-02-21T09:32:54.030Z,11.43
2019-02-21T09:35:23.599Z,11.90
2019-02-21T09:37:53.093Z,10.60
2019-02-21T09:40:22.674Z,11.27
2019-02-21T09:42:52.217Z,9.63
2019-02-21T09:45:21.755Z,12.10
2019-02-21T09:47:51.254Z,12.23
2019-02-21T09:50:20.760Z,12.60
2019-02-21T09:52:50.241Z,10.70
2019-02-21T09:55:19.813Z,11.20
2019-02-21T09:57:49.446Z,10.83
2019-02-21T10:00:23.125Z,12.10
2019-02-21T10:02:56.370Z,12.50
2019-02-21T10:05:23.930Z,11.30
2019-02-21T10:07:53.424Z,11.30
2019-02-21T10:10:22.989Z,11.30
2019-02-21T10:12:52.499Z,12.97
2019-02-21T10:15:22.072Z,12.47
2019-02-21T10:17:51.600Z,12.93
2019-02-21T10:20:22.591Z,13.30
2019-02-21T10:22:52.213Z,13.13
2019-02-21T10:25:25.695Z,12.87
2019-02-21T10:27:55.286Z,11.03
2019-02-21T10:30:25.031Z,13.60
2019-02-21T10:32:54.522Z,14.10
2019-02-21T10:35:24.082Z,15.07
2019-02-21T10:37:53.665Z,12.87
2019-02-21T10:40:23.307Z,13.93
2019-02-21T10:42:52.826Z,13.13
2019-02-21T10:45:23.534Z,12.43
2019-02-21T10:47:53.085Z,13.30
2019-02-21T10:50:22.994Z,14.60
2019-02-21T10:52:52.561Z,13.43
2019-02-21T10:55:22.283Z,13.63
2019-02-21T10:57:51.793Z,12.90
2019-02-21T11:00:29.514Z,13.83
2019-02-21T11:02:59.186Z,13.60
2019-02-21T11:05:28.884Z,13.57
2019-02-21T11:07:58.379Z,14.10
2019-02-21T11:10:31.473Z,16.70
2019-02-21T11:13:01.004Z,13.47
2019-02-21T11:15:30.523Z,14.30
2019-02-21T11:18:00.098Z,14.70
2019-02-21T11:20:29.578Z,14.07
2019-02-21T11:22:59.131Z,13.47
2019-02-21T11:25:28.597Z,12.93
2019-02-21T11:27:58.097Z,14.03
2019-02-21T11:30:27.745Z,12.70
2019-02-21T11:32:57.246Z,13.77
2019-02-21T11:35:26.825Z,13.40
2019-02-21T11:37:56.332Z,13.87
2019-02-21T11:40:25.823Z,13.87
2019-02-21T11:42:55.311Z,14.53
2019-02-21T11:45:24.892Z,13.53
2019-02-21T11:47:54.378Z,14.27
2019-02-21T11:50:23.897Z,15.00
2019-02-21T11:52:53.406Z,13.00
2019-02-21T11:55:25.702Z,13.07
2019-02-21T11:57:55.301Z,14.00
2019-02-21T12:00:31.755Z,13.07
2019-02-21T12:03:01.265Z,13.43
2019-02-21T12:05:31.852Z,13.73
2019-02-21T12:08:01.783Z,14.57
2019-02-21T12:10:31.333Z,14.40
2019-02-21T12:13:00.905Z,13.73
2019-02-21T12:15:30.411Z,12.07
2019-02-21T12:18:00.007Z,14.93
2019-02-21T12:20:29.492Z,14.40
2019-02-21T12:22:58.982Z,14.63
2019-02-21T12:25:28.551Z,12.80
2019-02-21T12:27:58.133Z,13.10
2019-02-21T12:30:27.626Z,11.60
2019-02-21T12:32:57.134Z,13.80
2019-02-21T12:35:29.570Z,13.73
2019-02-21T12:37:57.865Z,14.60
2019-02-21T12:40:27.405Z,14.67
2019-02-21T12:42:57.141Z,14.03
2019-02-21T12:45:30.073Z,13.67
2019-02-21T12:47:58.970Z,13.17
2019-02-21T12:50:28.482Z,14.90
2019-02-21T12:52:57.990Z,13.30
2019-02-21T12:55:31.554Z,15.20
2019-02-21T12:57:58.842Z,13.73
2019-02-21T13:00:28.357Z,13.83
2019-02-21T13:02:58.033Z,14.83
2019-02-21T13:05:27.533Z,13.43
2019-02-21T13:07:57.061Z,14.50
2019-02-21T13:10:26.611Z,15.20
2019-02-21T13:12:56.150Z,14.70
2019-02-21T13:15:25.744Z,15.37
2019-02-21T13:17:55.258Z,14.67
2019-02-21T13:20:24.890Z,15.07
2019-02-21T13:22:54.398Z,13.30
2019-02-21T13:25:24.035Z,12.67
2019-02-21T13:27:53.531Z,14.30
2019-02-21T13:30:23.051Z,14.20
2019-02-21T13:32:52.605Z,12.47
2019-02-21T13:35:22.157Z,14.77
2019-02-21T13:37:51.678Z,13.53
2019-02-21T13:40:21.541Z,14.13
2019-02-21T13:42:51.139Z,13.53
2019-02-21T13:45:20.641Z,13.07
2019-02-21T13:47:50.236Z,12.53
2019-02-21T13:50:23.817Z,12.30
2019-02-21T13:52:53.530Z,12.47
2019-02-21T13:55:23.026Z,13.50
2019-02-21T13:57:52.618Z,14.20
2019-02-21T14:00:25.435Z,13.10
2019-02-21T14:02:54.978Z,13.50
2019-02-21T14:05:24.460Z,14.30
2019-02-21T14:07:54.002Z,11.80
2019-02-21T14:10:23.551Z,11.97
2019-02-21T14:12:53.057Z,11.53
2019-02-21T14:15:30.698Z,11.47
2019-02-21T14:18:00.250Z,14.13
2019-02-21T14:20:29.774Z,13.53
2019-02-21T14:22:59.314Z,13.93
2019-02-21T14:25:39.985Z,13.20
2019-02-21T14:27:59.995Z,11.63
2019-02-21T14:30:29.498Z,13.37
2019-02-21T14:32:59.033Z,12.33
2019-02-21T14:35:28.617Z,11.63
2019-02-21T14:37:58.181Z,12.70
2019-02-21T14:40:27.751Z,13.10
2019-02-21T14:42:57.271Z,11.03
2019-02-21T14:45:27.143Z,14.33
2019-02-21T14:47:56.647Z,12.17
2019-02-21T14:50:27.105Z,12.90
2019-02-21T14:52:56.659Z,12.13
2019-02-21T14:55:26.140Z,12.27
2019-02-21T14:57:55.657Z,11.93
2019-02-21T15:00:29.824Z,10.47
2019-02-21T15:02:59.322Z,11.00
2019-02-21T15:05:28.909Z,11.90
2019-02-21T15:07:58.534Z,12.30
2019-02-21T15:10:28.040Z,11.70
2019-02-21T15:12:57.534Z,12.63
2019-02-21T15:15:27.985Z,12.10
2019-02-21T15:18:06.968Z,10.60
2019-02-21T15:20:36.842Z,12.17
2019-02-21T15:23:00.248Z,10.73
2019-02-21T15:25:29.884Z,9.60
2019-02-21T15:27:59.457Z,9.97
2019-02-21T15:30:29.027Z,9.87
2019-02-21T15:32:58.717Z,11.60
2019-02-21T15:35:28.255Z,9.53
2019-02-21T15:38:00.344Z,11.10
2019-02-21T15:40:29.001Z,11.57
2019-02-21T15:42:58.566Z,10.57
2019-02-21T15:45:30.041Z,11.13
2019-02-21T15:47:59.693Z,11.30
2019-02-21T15:50:29.201Z,11.27
2019-02-21T15:52:58.868Z,12.30
2019-02-21T15:55:28.454Z,11.83
2019-02-21T15:58:04.068Z,10.50
2019-02-21T16:00:29.373Z,11.40
2019-02-21T16:02:58.851Z,11.77
2019-02-21T16:05:28.378Z,11.83
2019-02-21T16:07:57.938Z,11.30
2019-02-21T16:10:28.573Z,12.13
2019-02-21T16:12:58.578Z,13.30
2019-02-21T16:15:28.571Z,13.40
2019-02-21T16:17:59.387Z,13.67
2019-02-21T16:20:28.918Z,12.73
2019-02-21T16:22:58.497Z,12.93
2019-02-21T16:25:33.125Z,12.90
2019-02-21T16:28:02.642Z,13.27
2019-02-21T16:30:32.220Z,14.10
2019-02-21T16:33:01.774Z,12.03
2019-02-21T16:35:31.277Z,13.60
2019-02-21T16:38:00.948Z,12.43
2019-02-21T16:40:30.573Z,12.87
2019-02-21T16:43:00.197Z,14.00
2019-02-21T16:45:42.478Z,13.03
2019-02-21T16:48:01.225Z,12.70
2019-02-21T16:50:30.811Z,13.67
2019-02-21T16:53:00.321Z,13.27
2019-02-21T16:55:29.837Z,14.60
2019-02-21T16:57:59.341Z,15.47
2019-02-21T17:00:42.112Z,13.57
2019-02-21T17:03:00.233Z,13.87
2019-02-21T17:05:29.884Z,14.80
2019-02-21T17:07:59.406Z,14.80
2019-02-21T17:10:29.002Z,16.07
2019-02-21T17:12:58.489Z,16.70
2019-02-21T17:15:28.014Z,19.87
2019-02-21T17:17:57.508Z,20.53
2019-02-21T17:20:27.100Z,20.27
2019-02-21T17:22:56.728Z,20.27
2019-02-21T17:25:26.254Z,22.17
2019-02-21T17:27:55.779Z,27.00
2019-02-21T17:30:25.879Z,15.37
2019-02-21T17:32:55.410Z,13.80
2019-02-21T17:35:24.963Z,13.60
2019-02-21T17:37:54.596Z,14.10
2019-02-21T17:40:27.494Z,15.50
2019-02-21T17:42:56.999Z,16.43
2019-02-21T17:45:26.591Z,17.10
2019-02-21T17:47:56.198Z,16.17
2019-02-21T17:50:25.758Z,17.10
2019-02-21T17:52:55.285Z,15.13
2019-02-21T17:55:25.015Z,16.80
2019-02-21T17:57:54.532Z,18.57
2019-02-21T18:00:27.263Z,20.23
2019-02-21T18:02:56.837Z,19.73
2019-02-21T18:05:26.388Z,20.00
2019-02-21T18:07:55.902Z,15.30
2019-02-21T18:10:25.484Z,16.93
2019-02-21T18:12:55.106Z,16.20
2019-02-21T18:15:24.817Z,16.37
2019-02-21T18:17:54.395Z,16.60
2019-02-21T18:20:24.017Z,14.30
2019-02-21T18:22:53.769Z,13.80
2019-02-21T18:25:37.096Z,16.40
2019-02-21T18:28:06.602Z,16.70
2019-02-21T18:30:36.188Z,16.17
2019-02-21T18:33:05.848Z,17.90
2019-02-21T18:35:35.342Z,14.77
2019-02-21T18:38:04.956Z,13.60
2019-02-21T18:40:34.555Z,14.90
2019-02-21T18:43:04.217Z,15.57
2019-02-21T18:45:33.753Z,14.40
2019-02-21T18:48:03.382Z,14.63
2019-02-21T18:50:38.305Z,17.63
2019-02-21T18:53:04.208Z,14.90
2019-02-21T18:55:33.769Z,15.93
2019-02-21T18:58:03.258Z,12.10
2019-02-21T19:00:32.915Z,15.57
2019-02-21T19:03:04.468Z,14.40
2019-02-21T19:05:36.102Z,14.17
2019-02-21T19:08:05.855Z,14.53
2019-02-21T19:10:35.649Z,19.57
2019-02-21T19:13:07.601Z,15.93
2019-02-21T19:15:36.709Z,17.97
2019-02-21T19:18:06.420Z,19.20
2019-02-21T19:20:36.024Z,16.97
2019-02-21T19:23:05.885Z,16.53
2019-02-21T19:25:35.479Z,15.03
2019-02-21T19:28:05.149Z,12.77
2019-02-21T19:30:48.322Z,13.17
2019-02-21T19:33:17.965Z,13.07
2019-02-21T19:35:48.608Z,14.03
2019-02-21T19:38:18.512Z,13.50
2019-02-21T19:41:07.768Z,13.27
2019-02-21T19:43:37.285Z,14.00
2019-02-21T19:46:06.875Z,13.20
2019-02-21T19:48:36.457Z,12.40
2019-02-21T19:51:06.506Z,13.33
2019-02-21T19:53:36.087Z,13.93
2019-02-21T19:56:05.889Z,13.07
2019-02-21T19:58:35.461Z,14.77
2019-02-21T20:01:05.054Z,25.13
2019-02-21T20:03:34.631Z,21.43
2019-02-21T20:06:04.244Z,15.53
2019-02-21T20:08:33.833Z,16.67
2019-02-21T20:11:06.487Z,17.87
2019-02-21T20:13:36.137Z,24.27
2019-02-21T20:16:05.788Z,27.00
2019-02-21T20:18:35.367Z,20.50
2019-02-21T20:21:04.937Z,19.87
2019-02-21T20:23:34.505Z,16.43
2019-02-21T20:26:04.042Z,16.50
2019-02-21T20:28:33.626Z,16.50
2019-02-21T20:31:03.128Z,15.50
2019-02-21T20:33:32.649Z,18.70
2019-02-21T20:36:02.190Z,16.70
2019-02-21T20:38:32.428Z,15.60
2019-02-21T20:41:02.275Z,16.90
2019-02-21T20:43:31.778Z,14.90
2019-02-21T20:46:01.276Z,15.47
2019-02-21T20:48:30.812Z,14.40
2019-02-21T20:51:01.633Z,15.00
2019-02-21T20:53:31.423Z,15.57
2019-02-21T20:56:00.908Z,15.67
2019-02-21T20:58:30.411Z,14.90
2019-02-21T21:01:00.292Z,16.83
2019-02-21T21:03:29.812Z,15.83
2019-02-21T21:05:59.309Z,15.07
2019-02-21T21:08:28.831Z,14.83
2019-02-21T21:10:58.410Z,14.67
2019-02-21T21:13:28.110Z,17.00
2019-02-21T21:15:57.605Z,17.40
2019-02-21T21:18:27.189Z,17.00
2019-02-21T21:20:56.807Z,17.37
2019-02-21T21:23:26.338Z,17.17
2019-02-21T21:25:55.986Z,15.70
2019-02-21T21:28:25.542Z,15.60
2019-02-21T21:30:55.112Z,16.10
2019-02-21T21:33:24.701Z,15.07
2019-02-21T21:35:54.271Z,16.13
2019-02-21T21:38:24.513Z,16.80
2019-02-21T21:40:54.442Z,16.10
2019-02-21T21:43:24.034Z,17.13
2019-02-21T21:45:53.604Z,16.40
2019-02-21T21:48:23.124Z,18.03
2019-02-21T21:50:52.697Z,18.50
2019-02-21T21:53:22.209Z,17.47
2019-02-21T21:55:51.760Z,18.67
2019-02-21T21:58:21.333Z,17.60
2019-02-21T22:00:50.909Z,18.40
2019-02-21T22:03:20.420Z,16.70
2019-02-21T22:05:49.921Z,18.80
2019-02-21T22:08:19.424Z,19.17
2019-02-21T22:10:48.955Z,18.27
2019-02-21T22:13:18.540Z,17.10
2019-02-21T22:15:48.058Z,19.17
2019-02-21T22:18:17.572Z,16.90
2019-02-21T22:20:47.144Z,17.30
2019-02-21T22:23:16.628Z,17.37
2019-02-21T22:25:46.142Z,18.10
2019-02-21T22:28:15.662Z,17.57
2019-02-21T22:30:45.172Z,16.50
2019-02-21T22:33:14.775Z,16.17
2019-02-21T22:35:44.427Z,16.63
2019-02-21T22:38:13.922Z,17.00
2019-02-21T22:40:43.499Z,18.20
2019-02-21T22:43:13.008Z,16.87
2019-02-21T22:45:42.671Z,16.90
2019-02-21T22:48:12.250Z,17.53
2019-02-21T22:50:41.776Z,17.37
2019-02-21T22:53:11.276Z,17.60
2019-02-21T22:55:40.884Z,17.43
2019-02-21T22:58:10.545Z,16.47
2019-02-21T23:00:59.574Z,19.27
2019-02-21T23:03:42.410Z,18.80
2019-02-21T23:06:37.519Z,19.55
2019-02-21T23:09:10.095Z,20.08
2019-02-21T23:11:39.596Z,19.27
2019-02-21T23:14:09.320Z,17.92
2019-02-21T23:16:38.829Z,20.37
2019-02-21T23:19:08.502Z,19.03
2019-02-21T23:21:37.996Z,21.23
2019-02-21T23:24:07.632Z,20.60
2019-02-21T23:26:37.144Z,19.83
2019-02-21T23:29:06.737Z,19.12
2019-02-21T23:31:36.292Z,19.50
2019-02-21T23:34:07.530Z,18.47
2019-02-21T23:36:37.073Z,19.50
2019-02-21T23:39:06.805Z,21.60
2019-02-21T23:41:36.335Z,20.00
2019-02-21T23:44:05.966Z,19.67
2019-02-21T23:46:35.453Z,19.90
2019-02-21T23:49:05.253Z,16.93
2019-02-21T23:51:34.833Z,20.50
2019-02-21T23:54:04.400Z,19.57
2019-02-21T23:56:33.920Z,19.03
2019-02-21T23:59:03.423Z,16.50
